NEODyS-2

Near Earth Objects - Dynamic Site
NEODyS ∴ Observatories ∴ Site 691 ∴ Obs & residuals
Contact »
691  ▹ 
OBSERVATIONS AND RESIDUALS

691-Steward Observatory, Kitt Peak-Spacewatch

Detections | Residuals | Detections & Residuals

[1-200] [201-400] [401-600] [601-800] [801-1000] [1001-1200] [1201-1400] [1401-1600] [1601-1800] [1801-2000] [2001-2200] [2201-2400] [2401-2600] [2601-2800] [2801-3000] [3001-3200] [3201-3400] [3401-3600] [3601-3800] [3801-4000] [4001-4200] [4201-4400] [4401-4600] [4601-4800] [4801-5000] [5001-5200] [5201-5400] [5401-5600] [5601-5800] [5801-6000] [6001-6200] [6201-6400] [6401-6600] [6601-6800] [6801-7000] [7001-7200] [7201-7400] [7401-7600] [7601-7800] [7801-8000] [8001-8200] [8201-8400] [8401-8600] [8601-8800] [8801-9000] [9001-9200] [9201-9400] [9401-9600] [9601-9800] [9801-10000] [10001-10200] [10201-10400] [10401-10600] [10601-10800] [10801-11000] [11001-11200] [11201-11400] [11401-11600] [11601-11800] [11801-12000] [12001-12200] [12201-12400] [12401-12600] [12601-12800] [12801-13000] [13001-13200] [13201-13400] [13401-13600] [13601-13800] [13801-14000] [14001-14200] [14201-14400] [14401-14600] [14601-14800] [14801-15000] [15001-15200] [15201-15400] [15401-15600] [15601-15800] [15801-16000] [16001-16200] [16201-16400] [16401-16600] [16601-16800] [16801-17000] [17001-17200] [17201-17400] [17401-17600] [17601-17800] [17801-18000] [18001-18200] [18201-18400] [18401-18600] [18601-18800] [18801-19000] [19001-19200] [19201-19400] [19401-19600] [19601-19800] [19801-20000] [20001-20200] [20201-20400] [20401-20600] [20601-20800] [20801-21000] [21001-21200] [21201-21400] [21401-21600] [21601-21800] [21801-22000] [22001-22200] [22201-22400] [22401-22600] [22601-22800] [22801-23000] [23001-23200] [23201-23400] [23401-23600] [23601-23800] [23801-24000] [24001-24200] [24201-24400] [24401-24600] [24601-24800] [24801-25000] [25001-25200] [25201-25400] [25401-25600] [25601-25800] [25801-26000] [26001-26200] [26201-26400] [26401-26600] [26601-26800] [26801-27000] [27001-27200] [27201-27400] [27401-27600] [27601-27800] [27801-28000] [28001-28200] [28201-28400] [28401-28600] [28601-28800] [28801-29000] [29001-29200] [29201-29400] [29401-29600] [29601-29800] [29801-30000] [30001-30200] [30201-30400] [30401-30600] [30601-30800] [30801-31000] [31001-31200] [31201-31400] [31401-31600] [31601-31800] [31801-32000] [32001-32200] [32201-32400] [32401-32600] [32601-32800] [32801-33000] [33001-33200] [33201-33400] [33401-33600] [33601-33800] [33801-34000] [34001-34200] [34201-34400] [34401-34600] [34601-34800] [34801-35000] [35001-35200] [35201-35400] [35401-35600] [35601-35800] [35801-36000] [36001-36200] [36201-36400] [36401-36600] [36601-36800] [36801-37000] [37001-37200] [37201-37400] [37401-37600] [37601-37800] [37801-38000] [38001-38200] [38201-38400] [38401-38600] [38601-38800] [38801-39000] [39001-39200] [39201-39400] [39401-39600] [39601-39800] [39801-40000] [40001-40200] [40201-40400] [40401-40600] [40601-40800] [40801-41000] [41001-41200] [41201-41400] [41401-41600] [41601-41800] [41801-42000] [42001-42200] [42201-42400] [42401-42600] [42601-42800] [42801-43000] [43001-43200] [43201-43400] [43401-43600] [43601-43800] [43801-44000] [44001-44200] [44201-44400] [44401-44600] [44601-44800] [44801-45000] [45001-45200] [45201-45400] [45401-45600] [45601-45800] [45801-46000] [46001-46200] [46201-46400] [46401-46600] [46601-46800] [46801-47000] [47001-47200] [47201-47400] [47401-47600] [47601-47800] [47801-48000] [48001-48200] [48201-48400] [48401-48600] [48601-48800] [48801-49000] [49001-49200] [49201-49400] [49401-49600] [49601-49800] [49801-50000] [50001-50200] [50201-50388]

Designation T Tech N Date Right Ascension Declination Apparent Magnitude Star Catalog Site code χ Used A Used M
yr-mo-day precision hr:min:sec precision rms F bias residual deg min sec precision rms F bias residual mag/col rms residual
2016EN1 O C K 2018-09-07.20785 1.000E-05 22:25:35.710 1.500E-01 0.500 F -0.037 0.215 +15° 11' 47.40" 1.000E-01 0.500 F 0.390 -0.138 21.7 R 0.70 0.72 o 691 0.52 Yes Yes
2016EN1 O C K 2018-09-07.21634 1.000E-05 22:25:35.210 1.500E-01 0.500 F -0.037 -0.596 +15° 11' 30.50" 1.000E-01 0.500 F 0.390 0.323 21.8 R 0.70 0.82 o 691 1.39 Yes Yes
2018LQ2 O C 2018-09-07.22857 1.000E-05 22:27:47.190 1.500E-01 0.500 F -0.069 -0.223 +13° 03' 16.50" 1.000E-01 0.500 F 0.413 -0.083 18.3 V 0.70 0.20 o 691 0.48 Yes Yes
2003CN17 O C 2018-09-07.22857 1.000E-05 22:29:15.320 1.500E-01 0.500 F -0.110 -0.249 +13° 03' 58.10" 1.000E-01 0.500 F 0.398 -0.014 19.9 V 0.70 -0.04 o 691 0.50 Yes Yes
2018LQ2 O C 2018-09-07.23184 1.000E-05 22:27:47.870 1.500E-01 0.500 F -0.069 -0.077 +13° 03' 00.60" 1.000E-01 0.500 F 0.413 0.004 18.5 V 0.70 0.40 o 691 0.15 Yes Yes
2003CN17 O C 2018-09-07.23184 1.000E-05 22:29:14.750 1.500E-01 0.500 F -0.110 -0.339 +13° 03' 59.60" 1.000E-01 0.500 F 0.398 -0.049 19.8 V 0.70 -0.14 o 691 0.69 Yes Yes
2018LQ2 O C 2018-09-07.23512 1.000E-05 22:27:48.530 1.500E-01 0.500 F -0.069 -0.211 +13° 02' 44.50" 1.000E-01 0.500 F 0.413 -0.035 18.5 V 0.70 0.40 o 691 0.43 Yes Yes
2003CN17 O C 2018-09-07.23512 1.000E-05 22:29:14.180 1.500E-01 0.500 F -0.110 -0.404 +13° 04' 01.20" 1.000E-01 0.500 F 0.398 0.013 19.7 V 0.70 -0.24 o 691 0.81 Yes Yes
2018FS3 O C K 2018-09-07.24844 1.000E-05 23:15:52.630 1.500E-01 0.500 F -0.194 0.025 +01° 30' 16.60" 1.000E-01 0.500 F 0.374 0.004 20.9 R 0.70 0.52 o 691 0.05 Yes Yes
2018FS3 O C K 2018-09-07.25258 1.000E-05 23:15:52.300 1.500E-01 0.500 F -0.194 0.142 +01° 30' 11.90" 1.000E-01 0.500 F 0.374 0.574 20.5 R 0.70 0.12 o 691 1.19 Yes Yes
2018FS3 O C K 2018-09-07.25672 1.000E-05 23:15:51.940 1.500E-01 0.500 F -0.194 -0.187 +01° 30' 06.20" 1.000E-01 0.500 F 0.374 0.144 21.1 R 0.70 0.72 o 691 0.47 Yes Yes
2018QQ O C K 2018-09-07.31281 1.000E-05 23:48:16.630 1.500E-01 0.500 F -0.335 -0.155 -21° 48' 25.00" 1.000E-01 0.500 F 0.107 -0.102 o 691 0.38 Yes No
2018QQ O C K 2018-09-07.32353 1.000E-05 23:48:16.920 1.500E-01 0.500 F -0.335 -0.704 -21° 48' 42.60" 1.000E-01 0.500 F 0.107 0.064 o 691 1.45 Yes No
2018QQ O C K 2018-09-07.33425 1.000E-05 23:48:17.280 1.500E-01 0.500 F -0.335 -0.235 -21° 49' 00.10" 1.000E-01 0.500 F 0.107 0.191 o 691 0.61 Yes No
2010SH13 O C K 2018-09-07.37882 1.000E-05 02:12:54.430 1.500E-01 0.500 F -0.281 0.224 +20° 09' 16.20" 1.000E-01 0.500 F 0.339 -0.098 22.1 R 0.70 0.58 o 691 0.50 Yes Yes
2010SH13 O C K 2018-09-07.38556 1.000E-05 02:12:54.530 1.500E-01 0.500 F -0.281 0.161 +20° 09' 08.80" 1.000E-01 0.500 F 0.339 -0.298 22.1 R 0.70 0.58 o 691 0.69 Yes Yes
2010SH13 O C K 2018-09-07.39914 1.000E-05 02:12:54.710 1.500E-01 0.500 F -0.281 -0.233 +20° 08' 53.90" 1.000E-01 0.500 F 0.339 -0.657 21.5 R 0.70 -0.02 o 691 1.41 Yes Yes
2003ED50 O C K 2018-09-07.40793 1.000E-05 05:11:26.930 1.500E-01 0.500 F -0.049 -0.045 +06° 27' 34.50" 1.000E-01 0.500 F 0.166 0.000 o 691 0.10 Yes No
2003ED50 O C K 2018-09-07.41774 1.000E-05 05:11:25.150 1.500E-01 0.500 F -0.049 -0.301 +06° 26' 25.00" 1.000E-01 0.500 F 0.166 -0.175 o 691 0.82 Yes No
2003ED50 O C K 2018-09-07.42758 1.000E-05 05:11:23.410 1.500E-01 0.500 F -0.049 0.194 +06° 25' 16.00" 1.000E-01 0.500 F 0.166 0.364 o 691 0.98 Yes No
2001PU9 O C K 2018-09-07.44625 1.000E-05 04:39:38.640 1.500E-01 0.500 F -0.140 0.361 -16° 26' 03.20" 1.000E-01 0.500 F 0.112 0.336 21.9 R 0.70 0.62 o 691 1.06 Yes Yes
2001PU9 O C K 2018-09-07.45561 1.000E-05 04:39:39.230 1.500E-01 0.500 F -0.140 -0.153 -16° 26' 15.80" 1.000E-01 0.500 F 0.112 0.492 22.1 R 0.70 0.82 o 691 1.08 Yes Yes
2001PU9 O C K 2018-09-07.46492 1.000E-05 04:39:39.880 1.500E-01 0.500 F -0.140 0.260 -16° 26' 28.90" 1.000E-01 0.500 F 0.112 0.074 21.4 R 0.70 0.12 o 691 0.58 Yes Yes
2014SM143 O C 2018-09-07.47581 1.000E-05 04:04:45.780 1.500E-01 0.500 F -0.260 -0.596 -08° 28' 51.90" 1.000E-01 0.500 F 0.209 -0.108 20.9 V 0.70 -0.23 o 691 1.23 Yes Yes
2014SM143 O C 2018-09-07.48109 1.000E-05 04:04:46.790 1.500E-01 0.500 F -0.260 0.301 -08° 28' 45.80" 1.000E-01 0.500 F 0.209 -0.105 20.7 V 0.70 -0.43 o 691 0.64 Yes Yes
2014SM143 O C 2018-09-07.48638 1.000E-05 04:04:47.670 1.500E-01 0.500 F -0.260 -0.754 -08° 28' 40.00" 1.000E-01 0.500 F 0.209 -0.418 20.9 V 0.70 -0.23 o 691 1.75 Yes Yes
2008CB22 O C 2018-09-07.49253 1.000E-05 03:37:55.530 1.500E-01 0.500 F -0.287 -0.304 +03° 16' 01.80" 1.000E-01 0.500 F 0.124 0.013 20.3 V 0.70 0.08 o 691 0.63 Yes Yes
2008CB22 O C 2018-09-07.49581 1.000E-05 03:37:56.610 1.500E-01 0.500 F -0.287 -0.772 +03° 16' 05.10" 1.000E-01 0.500 F 0.124 -0.287 20.5 V 0.70 0.28 o 691 1.69 Yes Yes
2008CB22 O C 2018-09-07.49909 1.000E-05 03:37:57.740 1.500E-01 0.500 F -0.287 -0.493 +03° 16' 09.00" 1.000E-01 0.500 F 0.124 0.013 20.3 V 0.70 0.08 o 691 1.02 Yes Yes
2005SC71 O C K 2018-09-08.11955 1.000E-05 16:51:01.360 1.500E-01 0.500 F 0.014 0.059 +28° 06' 00.20" 1.000E-01 0.500 F 0.245 -0.251 19.9 R 0.70 0.21 o 691 0.52 Yes Yes
2005SC71 O C K 2018-09-08.12369 1.000E-05 16:51:02.170 1.500E-01 0.500 F 0.014 -0.555 +28° 05' 54.00" 1.000E-01 0.500 F 0.245 -0.167 19.9 R 0.70 0.21 o 691 1.17 Yes Yes
2005SC71 O C K 2018-09-08.12784 1.000E-05 16:51:03.070 1.500E-01 0.500 F 0.014 -0.009 +28° 05' 47.80" 1.000E-01 0.500 F 0.245 -0.065 19.9 R 0.70 0.21 o 691 0.13 Yes Yes
2018PF8 O C K 2018-09-08.13228 1.000E-05 16:03:26.070 1.500E-01 0.500 F 0.236 0.272 +14° 54' 46.50" 1.000E-01 0.500 F 0.329 -0.325 o 691 0.86 Yes No
2018PF8 O C K 2018-09-08.14626 1.000E-05 16:03:27.850 1.500E-01 0.500 F 0.236 -0.622 +14° 54' 30.50" 1.000E-01 0.500 F 0.329 0.165 o 691 1.30 Yes No
2018PF8 O C K 2018-09-08.16023 1.000E-05 16:03:29.750 1.500E-01 0.500 F 0.236 0.194 +14° 54' 14.00" 1.000E-01 0.500 F 0.329 0.156 o 691 0.50 Yes No
2012EU14 O C K 2018-09-08.17444 1.000E-05 16:50:46.480 1.500E-01 0.500 F 0.190 -0.490 +09° 48' 20.00" 1.000E-01 0.500 F 0.133 -0.089 o 691 1.10 Yes No
2012EU14 O C K 2018-09-08.19031 1.000E-05 16:50:50.930 1.500E-01 0.500 F 0.190 -0.240 +09° 47' 50.30" 1.000E-01 0.500 F 0.133 -0.039 o 691 0.54 Yes No
2012EU14 O C K 2018-09-08.20620 1.000E-05 16:50:55.410 1.500E-01 0.500 F 0.190 0.282 +09° 47' 20.50" 1.000E-01 0.500 F 0.133 -0.036 o 691 0.63 Yes No
2018PK21 O C K 2018-09-08.22607 1.000E-05 20:48:38.110 1.500E-01 0.500 F -0.072 -0.201 -06° 11' 01.90" 1.000E-01 0.500 F 0.356 0.162 o 691 0.52 Yes No
2018PK21 O C K 2018-09-08.23539 1.000E-05 20:48:36.940 1.500E-01 0.500 F -0.072 -0.330 -06° 11' 05.60" 1.000E-01 0.500 F 0.356 -0.132 o 691 0.71 Yes No
2018PK21 O C K 2018-09-08.24472 1.000E-05 20:48:35.830 1.500E-01 0.500 F -0.072 0.390 -06° 11' 08.60" 1.000E-01 0.500 F 0.356 0.236 o 691 0.91 Yes No
2010SH13 O C K 2018-09-08.31071 1.000E-05 02:13:13.650 1.500E-01 0.500 F -0.295 -0.086 +19° 52' 07.50" 1.000E-01 0.500 F 0.295 -0.533 o 691 1.09 Yes No
1993PC O C 2018-09-08.32384 1.000E-05 02:08:14.590 1.500E-01 0.500 F -0.353 0.216 +17° 51' 23.90" 1.000E-01 0.500 F 0.266 -0.294 19.8 V 0.70 0.50 o 691 0.73 Yes Yes
2013PA7 O C K 2018-09-08.32384 1.000E-05 02:11:09.940 1.500E-01 0.500 F -0.353 -0.175 +17° 33' 39.20" 1.000E-01 0.500 F 0.266 0.059 20.6 R 0.70 0.15 o 691 0.37 Yes Yes
2010SH13 O C K 2018-09-08.32886 1.000E-05 02:13:13.900 1.500E-01 0.500 F -0.295 -0.030 +19° 51' 48.00" 1.000E-01 0.500 F 0.295 -0.025 o 691 0.08 Yes No
1993PC O C 2018-09-08.34201 1.000E-05 02:08:14.840 1.500E-01 0.500 F -0.353 -0.017 +17° 51' 36.40" 1.000E-01 0.500 F 0.266 -0.320 19.4 V 0.70 0.10 o 691 0.64 Yes Yes
2013PA7 O C K 2018-09-08.34201 1.000E-05 02:11:11.530 1.500E-01 0.500 F -0.353 0.007 +17° 34' 14.50" 1.000E-01 0.500 F 0.266 -0.149 20.5 R 0.70 0.05 o 691 0.30 Yes Yes
2010SH13 O C K 2018-09-08.34701 1.000E-05 02:13:14.070 1.500E-01 0.500 F -0.295 -0.958 +19° 51' 28.00" 1.000E-01 0.500 F 0.295 0.053 o 691 1.95 Yes No
1993PC O C 2018-09-08.36016 1.000E-05 02:08:15.100 1.500E-01 0.500 F -0.353 0.005 +17° 51' 48.80" 1.000E-01 0.500 F 0.266 -0.390 19.1 V 0.70 -0.20 o 691 0.78 Yes Yes
2013PA7 O C K 2018-09-08.36016 1.000E-05 02:11:13.060 1.500E-01 0.500 F -0.353 -0.335 +17° 34' 50.00" 1.000E-01 0.500 F 0.266 0.006 20.7 R 0.70 0.25 o 691 0.68 Yes Yes
2014SM143 O C K 2018-09-08.37326 1.000E-05 04:07:35.460 1.500E-01 0.500 F -0.233 -0.282 -08° 11' 08.60" 1.000E-01 0.500 F 0.151 0.181 20.8 R 0.70 0.11 o 691 0.67 Yes Yes
2014SM143 O C K 2018-09-08.38516 1.000E-05 04:07:37.690 1.500E-01 0.500 F -0.233 -0.080 -08° 10' 54.60" 1.000E-01 0.500 F 0.151 -0.085 20.9 R 0.70 0.21 o 691 0.24 Yes Yes
2014SM143 O C K 2018-09-08.39708 1.000E-05 04:07:39.900 1.500E-01 0.500 F -0.233 -0.173 -08° 10' 40.40" 1.000E-01 0.500 F 0.151 -0.191 20.6 R 0.70 -0.09 o 691 0.52 Yes Yes
2001PU9 O C K 2018-09-08.41029 1.000E-05 04:40:44.450 1.500E-01 0.500 F -0.140 -0.315 -16° 47' 49.60" 1.000E-01 0.500 F 0.112 -0.045 o 691 0.66 Yes No
2001PU9 O C K 2018-09-08.42575 1.000E-05 04:40:45.470 1.500E-01 0.500 F -0.140 0.004 -16° 48' 11.10" 1.000E-01 0.500 F 0.112 -0.461 o 691 0.98 Yes No
2001PU9 O C K 2018-09-08.44120 1.000E-05 04:40:46.470 1.500E-01 0.500 F -0.140 0.100 -16° 48' 31.80" 1.000E-01 0.500 F 0.112 -0.107 o 691 0.32 Yes No
2012DG61 O C K 2018-09-08.48342 1.000E-05 01:40:37.870 1.500E-01 0.500 F -0.256 0.197 -24° 49' 35.00" 1.000E-01 0.500 F 0.368 0.190 19.4 R 0.70 -0.04 o 691 0.56 Yes Yes
2012DG61 O C K 2018-09-08.48963 1.000E-05 01:40:37.090 1.500E-01 0.500 F -0.256 0.182 -24° 49' 37.30" 1.000E-01 0.500 F 0.368 -0.145 19.5 R 0.70 0.06 o 691 0.47 Yes Yes
2012DG61 O C K 2018-09-08.49586 1.000E-05 01:40:36.290 1.500E-01 0.500 F -0.256 -0.077 -24° 49' 39.00" 1.000E-01 0.500 F 0.368 0.120 19.5 R 0.70 0.06 o 691 0.29 Yes Yes
2018RB2 O C 2018-09-09.26226 1.000E-05 22:37:18.430 1.500E-01 0.500 F -0.005 -0.250 +24° 59' 52.10" 1.000E-01 0.500 F 0.176 0.090 20.2 V 0.70 0.04 o 691 0.53 Yes Yes
2018RB2 O C 2018-09-09.26553 1.000E-05 22:37:19.590 1.500E-01 0.500 F -0.005 0.019 +25° 00' 19.70" 1.000E-01 0.500 F 0.176 0.403 20.6 V 0.70 0.44 o 691 0.81 Yes Yes
2018RB2 O C 2018-09-09.26881 1.000E-05 22:37:20.730 1.500E-01 0.500 F -0.005 0.013 +25° 00' 46.70" 1.000E-01 0.500 F 0.176 0.150 20.3 V 0.70 0.14 o 691 0.30 Yes Yes
2011EJ47 O C K 2018-09-09.29561 1.000E-05 23:55:05.010 1.500E-01 0.500 F -0.092 -0.052 +28° 40' 48.10" 1.000E-01 0.500 F 0.247 -0.071 20.5 R 0.70 0.41 o 691 0.18 Yes Yes
2011EJ47 O C K 2018-09-09.30218 1.000E-05 23:55:04.060 1.500E-01 0.500 F -0.092 0.021 +28° 41' 23.10" 1.000E-01 0.500 F 0.247 -0.119 20.4 R 0.70 0.31 o 691 0.25 Yes Yes
2011EJ47 O C K 2018-09-09.30873 1.000E-05 23:55:03.040 1.500E-01 0.500 F -0.092 -0.845 +28° 41' 58.60" 1.000E-01 0.500 F 0.247 0.459 20.2 R 0.70 0.11 o 691 1.99 Yes Yes
2018OB1 O C K 2018-09-09.37566 1.000E-05 04:20:51.070 1.500E-01 0.500 F -0.236 0.288 +19° 36' 43.20" 1.000E-01 0.500 F 0.278 0.109 21.5 R 0.70 1.31 o 691 0.64 Yes Yes
2018OB1 O C K 2018-09-09.38224 1.000E-05 04:20:54.750 1.500E-01 0.500 F -0.236 0.251 +19° 36' 44.70" 1.000E-01 0.500 F 0.278 0.010 21.5 R 0.70 1.31 o 691 0.52 Yes Yes
2018OB1 O C K 2018-09-09.38878 1.000E-05 04:20:58.380 1.500E-01 0.500 F -0.236 -0.140 +19° 36' 46.40" 1.000E-01 0.500 F 0.278 0.135 21.1 R 0.70 0.91 o 691 0.40 Yes Yes
2012SN30 O C K 2018-09-09.40095 1.000E-05 04:11:01.030 1.500E-01 0.500 F -0.107 0.183 +05° 26' 45.80" 1.000E-01 0.500 F 0.388 -0.152 o 691 0.48 Yes No
2012SN30 O C K 2018-09-09.41494 1.000E-05 04:11:01.600 1.500E-01 0.500 F -0.107 0.120 +05° 26' 24.30" 1.000E-01 0.500 F 0.388 -0.371 o 691 0.78 Yes No
2018RQ1 O C K 2018-09-09.45453 1.000E-05 03:02:50.810 1.500E-01 0.500 F -0.353 -0.299 -04° 45' 07.40" 1.000E-01 0.500 F 0.295 -0.067 18.4 R 0.70 0.19 o 691 0.62 Yes Yes
2018RQ1 O C K 2018-09-09.45780 1.000E-05 03:02:50.290 1.500E-01 0.500 F -0.353 0.052 -04° 45' 21.40" 1.000E-01 0.500 F 0.295 0.255 18.5 R 0.70 0.29 o 691 0.52 Yes Yes
2018RQ1 O C K 2018-09-09.46107 1.000E-05 03:02:49.740 1.500E-01 0.500 F -0.353 -0.033 -04° 45' 36.00" 1.000E-01 0.500 F 0.295 -0.026 18.6 R 0.70 0.39 o 691 0.08 Yes Yes
2007HG44 O C K 2018-09-09.47597 1.000E-05 08:15:15.810 1.500E-01 0.500 F 0.053 -0.229 +18° 53' 31.30" 1.000E-01 0.500 F 0.322 0.436 o 691 1.03 Yes No
2007HG44 O C K 2018-09-09.48579 1.000E-05 08:15:19.740 1.500E-01 0.500 F 0.053 -0.317 +18° 53' 26.00" 1.000E-01 0.500 F 0.322 0.242 o 691 0.88 Yes No
2018LQ2 O C 2018-09-11.30392 1.000E-05 22:47:51.200 1.500E-01 0.500 F -0.137 -0.108 +07° 34' 39.50" 1.000E-01 0.500 F 0.230 0.046 18.6 V 0.70 0.56 o 691 0.24 Yes Yes
2018PS7 O C K 2018-09-11.30798 1.000E-05 22:46:28.560 1.500E-01 0.500 F -0.152 0.085 -14° 32' 29.70" 1.000E-01 0.500 F 0.319 -0.235 18.9 R 0.70 -0.41 o 691 0.51 Yes Yes
Camarillo O C 2018-09-11.30798 1.000E-05 22:42:43.540 1.500E-01 0.500 F -0.152 -0.129 -14° 30' 39.80" 1.000E-01 0.500 F 0.319 -0.099 19.3 V 0.70 0.51 o 691 0.33 Yes Yes
2018QV1 O C 2018-09-11.31159 1.000E-05 22:25:02.610 1.500E-01 0.500 F 0.079 -0.434 -05° 33' 21.60" 1.000E-01 0.500 F 0.150 0.139 18.1 V 0.70 0.04 o 691 0.92 Yes Yes
2018LQ2 O C 2018-09-11.31387 1.000E-05 22:47:52.810 1.500E-01 0.500 F -0.137 -0.221 +07° 33' 53.30" 1.000E-01 0.500 F 0.230 -0.079 18.6 V 0.70 0.56 o 691 0.47 Yes Yes
2018PS7 O C K 2018-09-11.31663 1.000E-05 22:46:28.460 1.500E-01 0.500 F -0.152 0.048 -14° 32' 13.30" 1.000E-01 0.500 F 0.319 -0.121 18.9 R 0.70 -0.41 o 691 0.26 Yes Yes
Camarillo O C 2018-09-11.31663 1.000E-05 22:42:42.810 1.500E-01 0.500 F -0.152 -0.184 -14° 30' 42.00" 1.000E-01 0.500 F 0.319 -0.103 19.1 V 0.70 0.31 o 691 0.42 Yes Yes
2018QV1 O C 2018-09-11.31968 1.000E-05 22:25:01.700 1.500E-01 0.500 F 0.079 0.063 -05° 32' 38.90" 1.000E-01 0.500 F 0.150 0.222 18.2 V 0.70 0.14 o 691 0.47 Yes Yes
2018LQ2 O C 2018-09-11.32196 1.000E-05 22:47:54.140 1.500E-01 0.500 F -0.137 -0.119 +07° 33' 15.80" 1.000E-01 0.500 F 0.230 -0.026 18.5 V 0.70 0.46 o 691 0.25 Yes Yes
2018PS7 O C K 2018-09-11.32473 1.000E-05 22:46:28.360 1.500E-01 0.500 F -0.152 -0.092 -14° 31' 57.90" 1.000E-01 0.500 F 0.319 0.015 19.0 R 0.70 -0.31 o 691 0.19 Yes Yes
Camarillo O C 2018-09-11.32473 1.000E-05 22:42:42.120 1.500E-01 0.500 F -0.152 -0.332 -14° 30' 44.20" 1.000E-01 0.500 F 0.319 -0.252 19.0 V 0.70 0.21 o 691 0.83 Yes Yes
2018QV1 O C 2018-09-11.32778 1.000E-05 22:25:00.740 1.500E-01 0.500 F 0.079 -0.200 -05° 31' 56.40" 1.000E-01 0.500 F 0.150 0.063 18.2 V 0.70 0.14 o 691 0.42 Yes Yes
2002VX94 O C 2018-09-11.33430 1.000E-05 01:25:56.300 1.500E-01 0.500 F -0.106 -0.022 +19° 16' 22.40" 1.000E-01 0.500 F 0.324 -0.026 20.8 V 0.70 -0.18 o 691 0.07 Yes Yes
2014SK260 O C K 2018-09-11.33678 1.000E-05 01:39:59.150 1.500E-01 0.500 F -0.410 -0.260 +14° 07' 35.50" 1.000E-01 0.500 F 0.188 0.156 20.5 R 0.70 0.49 o 691 0.62 Yes Yes
2018RQ1 O C 2018-09-11.33969 1.000E-05 03:00:45.700 1.500E-01 0.500 F -0.406 0.238 -07° 18' 33.80" 1.000E-01 0.500 F 0.240 0.128 18.8 V 0.70 0.50 o 691 0.54 Yes Yes
2002VX94 O C 2018-09-11.34363 1.000E-05 01:25:55.710 1.500E-01 0.500 F -0.106 -0.345 +19° 16' 23.10" 1.000E-01 0.500 F 0.324 -0.057 20.7 V 0.70 -0.28 o 691 0.70 Yes Yes
2014SK260 O C K 2018-09-11.34611 1.000E-05 01:40:00.010 1.500E-01 0.500 F -0.410 -0.102 +14° 07' 10.90" 1.000E-01 0.500 F 0.188 0.203 20.8 R 0.70 0.79 o 691 0.46 Yes Yes
2018RQ1 O C 2018-09-11.34886 1.000E-05 03:00:44.100 1.500E-01 0.500 F -0.406 0.382 -07° 19' 25.60" 1.000E-01 0.500 F 0.240 -0.094 18.5 V 0.70 0.20 o 691 0.79 Yes Yes
2002VX94 O C 2018-09-11.35281 1.000E-05 01:25:55.160 1.500E-01 0.500 F -0.106 -0.221 +19° 16' 23.80" 1.000E-01 0.500 F 0.324 -0.068 20.6 V 0.70 -0.38 o 691 0.46 Yes Yes
2014SK260 O C K 2018-09-11.35530 1.000E-05 01:40:00.850 1.500E-01 0.500 F -0.410 -0.034 +14° 06' 46.50" 1.000E-01 0.500 F 0.188 0.099 20.6 R 0.70 0.59 o 691 0.21 Yes Yes
2018RQ1 O C 2018-09-11.35804 1.000E-05 03:00:42.410 1.500E-01 0.500 F -0.363 -0.162 -07° 20' 17.20" 1.000E-01 0.500 F 0.227 -0.073 18.2 V 0.70 -0.10 o 691 0.36 Yes Yes
2018RX3 O C K 2018-09-11.36117 1.000E-05 00:48:06.180 1.500E-01 0.500 F -0.402 -0.149 -03° 54' 10.60" 1.000E-01 0.500 F -0.007 -0.073 21.0 R 0.70 0.91 o 691 0.34 Yes Yes
2018RJ3 O C 2018-09-11.36360 1.000E-05 01:06:25.840 1.500E-01 0.500 F -0.435 0.117 -16° 28' 34.90" 1.000E-01 0.500 F 0.147 -0.182 20.1 V 0.70 -0.13 o 691 0.45 Yes Yes
2018PE22 O C 2018-09-11.36657 1.000E-05 00:34:20.960 1.500E-01 0.500 F -0.310 -0.300 -01° 36' 28.60" 1.000E-01 0.500 F 0.237 -0.113 20.2 V 0.70 0.01 o 691 0.65 Yes Yes
2018RX3 O C K 2018-09-11.37043 1.000E-05 00:48:08.630 1.500E-01 0.500 F -0.402 -0.076 -03° 54' 37.60" 1.000E-01 0.500 F -0.007 -0.019 21.3 R 0.70 1.21 o 691 0.16 Yes Yes
2018RJ3 O C 2018-09-11.37276 1.000E-05 01:06:23.640 1.500E-01 0.500 F -0.435 0.344 -16° 29' 11.60" 1.000E-01 0.500 F 0.147 0.544 20.0 V 0.70 -0.23 o 691 1.34 Yes Yes
2018PE22 O C 2018-09-11.37571 1.000E-05 00:34:21.530 1.500E-01 0.500 F -0.310 -0.546 -01° 36' 23.50" 1.000E-01 0.500 F 0.237 -0.308 20.1 V 0.70 -0.09 o 691 1.26 Yes Yes
2018RX3 O C K 2018-09-11.37958 1.000E-05 00:48:11.040 1.500E-01 0.500 F -0.402 -0.202 -03° 55' 04.40" 1.000E-01 0.500 F -0.007 -0.071 20.7 R 0.70 0.61 o 691 0.44 Yes Yes
2018RJ3 O C 2018-09-11.38196 1.000E-05 01:06:21.380 1.500E-01 0.500 F -0.435 -0.207 -16° 29' 48.90" 1.000E-01 0.500 F 0.147 0.203 20.4 V 0.70 0.16 o 691 0.59 Yes Yes
2018PE22 O C 2018-09-11.38496 1.000E-05 00:34:22.140 1.500E-01 0.500 F -0.310 -0.304 -01° 36' 18.20" 1.000E-01 0.500 F 0.237 -0.369 20.1 V 0.70 -0.09 o 691 0.96 Yes Yes
2018RH3 O C K 2018-09-11.39017 1.000E-05 21:49:56.090 1.500E-01 0.500 F -0.153 0.032 -01° 42' 19.60" 1.000E-01 0.500 F 0.176 -0.249 19.7 R 0.70 0.49 o 691 0.52 Yes Yes
2018GA O C K 2018-09-11.39266 1.000E-05 21:50:31.280 1.500E-01 0.500 F -0.012 0.098 +04° 19' 59.90" 1.000E-01 0.500 F 0.316 0.327 o 691 0.70 Yes No
2018GA O C K 2018-09-11.39882 1.000E-05 21:50:31.090 1.500E-01 0.500 F -0.012 0.147 +04° 19' 45.80" 1.000E-01 0.500 F 0.316 -0.369 o 691 0.83 Yes No
2016XD1 O C K 2018-09-11.40217 1.000E-05 22:17:37.450 1.500E-01 0.500 F -0.081 -0.306 +12° 48' 42.60" 1.000E-01 0.500 F 0.334 0.096 o 691 0.64 Yes No
2016XD1 O C K 2018-09-11.41043 1.000E-05 22:17:36.770 1.500E-01 0.500 F -0.081 -0.263 +12° 48' 39.90" 1.000E-01 0.500 F 0.334 -0.129 o 691 0.59 Yes No
2018RH3 O C K 2018-09-11.41410 1.000E-05 21:49:59.320 1.500E-01 0.500 F -0.153 0.507 -01° 44' 15.20" 1.000E-01 0.500 F 0.176 -0.050 19.3 R 0.70 0.08 o 691 1.08 Yes Yes
2018GA O C K 2018-09-11.41968 1.000E-05 21:50:30.450 1.500E-01 0.500 F -0.012 0.255 +04° 19' 01.10" 1.000E-01 0.500 F 0.316 0.317 o 691 0.83 Yes No
2016XD1 O C K 2018-09-11.43023 1.000E-05 22:17:35.140 1.500E-01 0.500 F -0.081 -0.215 +12° 48' 34.20" 1.000E-01 0.500 F 0.334 0.117 o 691 0.49 Yes No
2017WC29 O C 2018-09-11.44018 1.000E-05 00:10:06.880 1.500E-01 0.500 F -0.145 -0.156 +14° 47' 31.10" 1.000E-01 0.500 F 0.460 0.162 20.7 V 0.70 -0.59 o 691 0.45 Yes Yes
2018QR O C K 2018-09-11.44195 1.000E-05 00:18:03.690 1.500E-01 0.500 F -0.117 0.481 +12° 36' 10.10" 1.000E-01 0.500 F 0.360 0.045 22.4 R 0.70 0.73 o 691 1.02 Yes Yes
2018QP O C 2018-09-11.45051 1.000E-05 23:41:48.630 1.500E-01 0.500 F -0.154 0.060 +02° 18' 17.40" 1.000E-01 0.500 F 0.248 -0.152 19.5 V 0.70 -0.43 o 691 0.33 Yes Yes
2017WC29 O C 2018-09-11.45213 1.000E-05 00:10:05.750 1.500E-01 0.500 F -0.145 -0.156 +14° 47' 28.80" 1.000E-01 0.500 F 0.460 -0.130 20.9 V 0.70 -0.39 o 691 0.40 Yes Yes
2018QR O C K 2018-09-11.45390 1.000E-05 00:18:04.870 1.500E-01 0.500 F -0.117 -0.050 +12° 36' 11.60" 1.000E-01 0.500 F 0.360 -0.030 21.8 R 0.70 0.13 o 691 0.12 Yes Yes
2018QP O C 2018-09-11.46245 1.000E-05 23:41:50.440 1.500E-01 0.500 F -0.154 -0.187 +02° 18' 20.00" 1.000E-01 0.500 F 0.248 0.224 20.1 V 0.70 0.18 o 691 0.59 Yes Yes
2017WC29 O C 2018-09-11.46407 1.000E-05 00:10:04.600 1.500E-01 0.500 F -0.145 -0.479 +14° 47' 26.70" 1.000E-01 0.500 F 0.460 -0.214 20.7 V 0.70 -0.59 o 691 1.07 Yes Yes
2018QR O C K 2018-09-11.46584 1.000E-05 00:18:06.090 1.500E-01 0.500 F -0.117 -0.132 +12° 36' 12.80" 1.000E-01 0.500 F 0.360 -0.351 22.5 R 0.70 0.83 o 691 0.77 Yes Yes
2018QP O C 2018-09-11.47438 1.000E-05 23:41:52.290 1.500E-01 0.500 F -0.154 0.025 +02° 18' 22.00" 1.000E-01 0.500 F 0.248 0.009 19.8 V 0.70 -0.12 o 691 0.05 Yes Yes
2018QT O C H 2018-09-11.47918 1.000E-05 02:34:17.440 1.500E-01 0.500 F -0.267 0.144 +15° 14' 44.10" 1.000E-01 0.500 F 0.388 -0.167 18.5 R 0.70 -0.15 o 691 0.44 Yes Yes
2016RY40 O C K 2018-09-11.48137 1.000E-05 02:13:28.470 1.500E-01 0.500 F -0.339 0.781 -07° 50' 01.20" 1.000E-01 0.500 F 0.113 0.817 21.7 R 0.70 0.02 o 691 2.27 Yes Yes
2005FG O C H 2018-09-11.48936 1.000E-05 02:43:48.930 1.500E-01 0.500 F -0.191 -0.179 +10° 15' 39.50" 1.000E-01 0.500 F 0.166 0.078 19.4 R 0.70 0.00 o 691 0.40 Yes Yes
2018QT O C H 2018-09-11.49127 1.000E-05 02:34:24.610 1.500E-01 0.500 F -0.267 -0.138 +15° 15' 25.80" 1.000E-01 0.500 F 0.388 0.041 18.8 R 0.70 0.15 o 691 0.29 Yes Yes
2016RY40 O C K 2018-09-11.49352 1.000E-05 02:13:27.940 1.500E-01 0.500 F -0.339 0.153 -07° 50' 05.40" 1.000E-01 0.500 F 0.113 0.850 22.2 R 0.70 0.53 o 691 1.74 Yes Yes
2005FG O C H 2018-09-11.50074 1.000E-05 02:43:41.320 1.500E-01 0.500 F -0.191 0.115 +10° 16' 00.40" 1.000E-01 0.500 F 0.166 0.579 19.1 R 0.70 -0.30 o 691 1.20 Yes Yes
2018QT O C H 2018-09-11.50173 1.000E-05 02:34:30.860 1.500E-01 0.500 F -0.267 0.166 +15° 16' 01.40" 1.000E-01 0.500 F 0.388 -0.219 18.5 R 0.70 -0.15 o 691 0.55 Yes Yes
2016RY40 O C K 2018-09-11.50402 1.000E-05 02:13:27.510 1.500E-01 0.500 F -0.339 0.020 -07° 50' 10.30" 1.000E-01 0.500 F 0.113 -0.395 o 691 0.80 Yes No
2005FG O C H 2018-09-11.51156 1.000E-05 02:43:34.070 1.500E-01 0.500 F -0.191 -0.060 +10° 16' 19.30" 1.000E-01 0.500 F 0.166 0.211 19.1 R 0.70 -0.30 o 691 0.45 Yes Yes
2018KV O C K 2018-09-12.11465 1.000E-05 15:45:01.010 1.500E-01 0.500 F 0.035 0.171 +15° 09' 01.30" 1.000E-01 0.500 F 0.322 0.037 19.4 R 0.70 0.65 o 691 0.35 Yes Yes
2005SC71 O C K 2018-09-12.12480 1.000E-05 17:05:28.500 1.500E-01 0.500 F 0.058 0.093 +26° 20' 44.10" 1.000E-01 0.500 F 0.183 0.229 20.1 R 0.70 0.45 o 691 0.50 Yes Yes
2018PF8 O C K 2018-09-12.12778 1.000E-05 16:12:42.930 1.500E-01 0.500 F 0.224 -0.142 +13° 34' 21.40" 1.000E-01 0.500 F 0.172 0.007 21.5 R 0.70 -0.11 o 691 0.29 Yes Yes
2018KV O C K 2018-09-12.14318 1.000E-05 15:45:04.050 1.500E-01 0.500 F 0.035 0.094 +15° 08' 25.00" 1.000E-01 0.500 F 0.322 0.153 19.3 R 0.70 0.55 o 691 0.36 Yes Yes
2005SC71 O C K 2018-09-12.14627 1.000E-05 17:05:33.160 1.500E-01 0.500 F 0.058 -0.065 +26° 20' 08.20" 1.000E-01 0.500 F 0.183 0.097 20.0 R 0.70 0.35 o 691 0.24 Yes Yes
2018PF8 O C K 2018-09-12.14898 1.000E-05 16:12:45.970 1.500E-01 0.500 F 0.224 0.120 +13° 33' 55.10" 1.000E-01 0.500 F 0.172 0.280 22.0 R 0.70 0.39 o 691 0.61 Yes Yes
2018KV O C K 2018-09-12.16390 1.000E-05 15:45:06.260 1.500E-01 0.500 F 0.035 -0.098 +15° 07' 58.50" 1.000E-01 0.500 F 0.322 0.146 19.5 R 0.70 0.75 o 691 0.35 Yes Yes
2005SC71 O C K 2018-09-12.16699 1.000E-05 17:05:37.680 1.500E-01 0.500 F 0.058 -0.032 +26° 19' 34.40" 1.000E-01 0.500 F 0.183 0.898 19.4 R 0.70 -0.25 o 691 1.81 Yes Yes
2018PF8 O C K 2018-09-12.16970 1.000E-05 16:12:49.040 1.500E-01 0.500 F 0.224 1.701 +13° 33' 29.70" 1.000E-01 0.500 F 0.172 0.879 o 691 3.80 No No
2018MS6 O C H 2018-09-12.25822 1.000E-05 21:37:55.610 1.500E-01 0.500 F -0.015 -0.205 +10° 54' 28.20" 1.000E-01 0.500 F 0.263 0.113 o 691 0.47 Yes No
2018MS6 O C H 2018-09-12.27378 1.000E-05 21:37:55.740 1.500E-01 0.500 F -0.015 0.073 +10° 54' 19.30" 1.000E-01 0.500 F 0.263 -0.203 o 691 0.43 Yes No
2018MS6 O C H 2018-09-12.28949 1.000E-05 21:37:55.870 1.500E-01 0.500 F -0.015 0.294 +10° 54' 10.90" 1.000E-01 0.500 F 0.263 0.092 o 691 0.62 Yes No
2018LQ2 O C 2018-09-12.32077 1.000E-05 22:52:23.230 1.500E-01 0.500 F -0.060 0.213 +06° 17' 51.80" 1.000E-01 0.500 F 0.264 -0.028 18.4 V 0.70 0.37 o 691 0.43 Yes Yes
2018LQ2 O C 2018-09-12.32977 1.000E-05 22:52:24.620 1.500E-01 0.500 F -0.060 -0.061 +06° 17' 11.30" 1.000E-01 0.500 F 0.264 -0.042 18.4 V 0.70 0.37 o 691 0.15 Yes Yes
2018LQ2 O C 2018-09-12.33783 1.000E-05 22:52:25.890 1.500E-01 0.500 F -0.060 -0.109 +06° 16' 35.00" 1.000E-01 0.500 F 0.264 -0.019 18.4 V 0.70 0.37 o 691 0.22 Yes Yes
2015RL82 O C 2018-09-12.37244 1.000E-05 00:39:57.810 1.500E-01 0.500 F -0.288 -0.226 -20° 25' 29.60" 1.000E-01 0.500 F 0.082 0.128 19.7 V 0.70 0.55 o 691 0.52 Yes Yes
2015RL82 O C 2018-09-12.37444 1.000E-05 00:39:57.540 1.500E-01 0.500 F -0.288 -0.044 -20° 25' 30.00" 1.000E-01 0.500 F 0.082 0.295 19.8 V 0.70 0.65 o 691 0.60 Yes Yes
2017SN16 O C K 2018-09-12.37611 1.000E-05 00:40:49.610 1.500E-01 0.500 F -0.393 0.585 -21° 11' 47.10" 1.000E-01 0.500 F 0.107 2.098 o 691 4.28 No No
2018PE22 O C 2018-09-12.37986 1.000E-05 00:35:35.020 1.500E-01 0.500 F -0.359 -0.227 -01° 26' 35.10" 1.000E-01 0.500 F 0.257 -0.265 20.0 V 0.70 -0.13 o 691 0.70 Yes Yes
2018PE22 O C 2018-09-12.38278 1.000E-05 00:35:35.220 1.500E-01 0.500 F -0.359 -0.040 -01° 26' 33.40" 1.000E-01 0.500 F 0.257 -0.298 20.2 V 0.70 0.07 o 691 0.60 Yes Yes
2015RL82 O C 2018-09-12.38535 1.000E-05 00:39:55.990 1.500E-01 0.500 F -0.288 -0.138 -20° 25' 33.20" 1.000E-01 0.500 F 0.082 0.170 19.5 V 0.70 0.35 o 691 0.44 Yes Yes
2017SN16 O C K 2018-09-12.38903 1.000E-05 00:40:45.260 1.500E-01 0.500 F -0.393 0.498 -21° 11' 23.30" 1.000E-01 0.500 F 0.107 -0.018 21.2 R 0.70 1.12 o 691 1.01 Yes Yes
2018PE22 O C 2018-09-12.39260 1.000E-05 00:35:35.850 1.500E-01 0.500 F -0.359 -0.060 -01° 26' 27.50" 1.000E-01 0.500 F 0.257 -0.225 20.1 V 0.70 -0.03 o 691 0.47 Yes Yes
2017SN16 O C K 2018-09-12.40174 1.000E-05 00:40:40.920 1.500E-01 0.500 F -0.393 -0.460 -21° 10' 57.20" 1.000E-01 0.500 F 0.107 0.442 20.3 R 0.70 0.22 o 691 1.31 Yes Yes
2018PV10 O C K 2018-09-12.41143 1.000E-05 23:25:44.420 1.500E-01 0.500 F -0.291 0.190 -06° 08' 28.40" 1.000E-01 0.500 F 0.271 0.392 21.1 R 0.70 0.22 o 691 0.94 Yes Yes
2018PM22 O C K 2018-09-12.41892 1.000E-05 00:03:09.140 1.500E-01 0.500 F -0.214 -0.644 +03° 30' 37.00" 1.000E-01 0.500 F 0.317 0.334 21.0 R 0.70 -0.25 o 691 1.52 Yes Yes
2018PV10 O C K 2018-09-12.43212 1.000E-05 23:25:44.840 1.500E-01 0.500 F -0.291 -0.065 -06° 08' 58.40" 1.000E-01 0.500 F 0.271 -0.419 20.8 R 0.70 -0.08 o 691 0.91 Yes Yes
2018PM22 O C K 2018-09-12.43956 1.000E-05 00:03:09.010 1.500E-01 0.500 F -0.214 -0.587 +03° 30' 22.50" 1.000E-01 0.500 F 0.317 0.036 20.8 R 0.70 -0.45 o 691 1.23 Yes Yes
2018PV10 O C K 2018-09-12.45278 1.000E-05 23:25:45.280 1.500E-01 0.500 F -0.291 -0.300 -06° 09' 27.10" 1.000E-01 0.500 F 0.271 -0.038 21.3 R 0.70 0.42 o 691 0.67 Yes Yes
2018PM22 O C K 2018-09-12.46022 1.000E-05 00:03:08.980 1.500E-01 0.500 F -0.214 0.697 +03° 30' 09.20" 1.000E-01 0.500 F 0.317 0.969 20.9 R 0.70 -0.36 o 691 2.50 Yes Yes
2001VC2 O C K 2018-09-12.47888 1.000E-05 04:08:11.870 1.500E-01 0.500 F -0.260 -0.396 -19° 10' 24.40" 1.000E-01 0.500 F 0.182 -0.033 21.3 R 0.70 0.32 o 691 0.80 Yes Yes
2001VC2 O C K 2018-09-12.49169 1.000E-05 04:08:12.820 1.500E-01 0.500 F -0.260 0.099 -19° 10' 30.80" 1.000E-01 0.500 F 0.182 -0.166 21.3 R 0.70 0.32 o 691 0.39 Yes Yes
2001VC2 O C K 2018-09-12.50452 1.000E-05 04:08:13.690 1.500E-01 0.500 F -0.260 -0.541 -19° 10' 36.80" 1.000E-01 0.500 F 0.182 0.069 20.7 R 0.70 -0.28 o 691 1.10 Yes Yes
2018LQ2 O C 2018-09-13.14104 1.000E-05 22:56:13.540 1.500E-01 0.500 F -0.108 -0.323 +05° 17' 37.00" 1.000E-01 0.500 F 0.291 -0.031 18.8 V 0.70 0.78 o 691 0.65 Yes Yes
2014PG51 O C 2018-09-13.14104 1.000E-05 22:54:52.800 1.500E-01 0.500 F -0.095 -0.634 +05° 37' 41.40" 1.000E-01 0.500 F 0.345 -0.079 20.6 V 0.70 0.23 o 691 1.29 Yes Yes
2018FS3 O C K 2018-09-13.14487 1.000E-05 23:09:10.110 1.500E-01 0.500 F -0.105 0.598 -00° 26' 43.80" 1.000E-01 0.500 F 0.312 0.435 o 691 1.49 Yes No
2014PG51 O C 2018-09-13.15653 1.000E-05 22:54:50.530 1.500E-01 0.500 F -0.095 -0.996 +05° 37' 22.40" 1.000E-01 0.500 F 0.345 -0.580 21.0 V 0.70 0.63 o 691 2.34 Yes Yes
2018LQ2 O C 2018-09-13.15653 1.000E-05 22:56:16.430 1.500E-01 0.500 F -0.108 -0.157 +05° 16' 31.80" 1.000E-01 0.500 F 0.291 0.019 18.5 V 0.70 0.48 o 691 0.32 Yes Yes
2018FS3 O C K 2018-09-13.16035 1.000E-05 23:09:09.050 1.500E-01 0.500 F -0.105 -0.012 -00° 27' 01.50" 1.000E-01 0.500 F 0.312 -0.190 o 691 0.38 Yes No
2014PG51 O C 2018-09-13.17201 1.000E-05 22:54:48.310 1.500E-01 0.500 F -0.095 -0.538 +05° 37' 04.60" 1.000E-01 0.500 F 0.345 0.115 20.5 V 0.70 0.13 o 691 1.11 Yes Yes
2018LQ2 O C 2018-09-13.17201 1.000E-05 22:56:19.180 1.500E-01 0.500 F -0.108 -0.233 +05° 15' 26.40" 1.000E-01 0.500 F 0.291 -0.045 18.7 V 0.70 0.68 o 691 0.48 Yes Yes
2018FS3 O C K 2018-09-13.17583 1.000E-05 23:09:08.010 1.500E-01 0.500 F -0.105 -0.212 -00° 27' 18.30" 1.000E-01 0.500 F 0.312 0.077 21.2 R 0.70 0.68 o 691 0.45 Yes Yes
2018PA20 O C K 2018-09-13.18802 1.000E-05 22:04:31.760 1.500E-01 0.500 F -0.038 -0.202 +03° 25' 44.70" 1.000E-01 0.500 F 0.377 0.155 o 691 0.51 Yes No
2010GZ33 O C K 2018-09-13.20044 1.000E-05 22:21:29.640 1.500E-01 0.500 F -0.065 -0.239 -01° 31' 07.20" 1.000E-01 0.500 F 0.420 0.127 21.7 R 0.70 0.11 o 691 0.66 Yes Yes
2018PA20 O C K 2018-09-13.22569 1.000E-05 22:04:26.640 1.500E-01 0.500 F -0.038 -0.005 +03° 26' 12.30" 1.000E-01 0.500 F 0.377 -0.147 o 691 0.30 Yes No
2010GZ33 O C K 2018-09-13.23812 1.000E-05 22:21:29.460 1.500E-01 0.500 F -0.065 0.316 -01° 31' 45.60" 1.000E-01 0.500 F 0.420 0.231 21.9 R 0.70 0.31 o 691 1.00 Yes Yes
2018PA20 O C K 2018-09-13.26338 1.000E-05 22:04:21.470 1.500E-01 0.500 F -0.038 -0.512 +03° 26' 40.20" 1.000E-01 0.500 F 0.377 -0.098 o 691 1.05 Yes No
2018FY1 O C H 2018-09-13.32701 1.000E-05 00:02:43.740 1.500E-01 0.500 F -0.230 -0.323 -28° 53' 11.50" 1.000E-01 0.500 F 0.310 0.312 19.5 R 0.70 0.09 o 691 0.92 Yes Yes
2018PM22 O C K 2018-09-13.35330 1.000E-05 00:03:12.200 1.500E-01 0.500 F -0.214 -0.066 +03° 20' 04.80" 1.000E-01 0.500 F 0.317 0.035 21.5 R 0.70 0.23 o 691 0.16 Yes Yes
2018FY1 O C H 2018-09-13.36369 1.000E-05 00:02:37.080 1.500E-01 0.500 F -0.230 -0.698 -28° 52' 00.10" 1.000E-01 0.500 F 0.310 0.056 19.5 R 0.70 0.09 o 691 1.44 Yes Yes
2018PM22 O C K 2018-09-13.38979 1.000E-05 00:03:11.850 1.500E-01 0.500 F -0.214 -0.315 +03° 19' 40.70" 1.000E-01 0.500 F 0.317 0.485 21.3 R 0.70 0.03 o 691 1.22 Yes Yes
2018FY1 O C H 2018-09-13.40016 1.000E-05 00:02:30.590 1.500E-01 0.500 F -0.230 0.435 -28° 50' 48.70" 1.000E-01 0.500 F 0.310 -0.125 19.9 R 0.70 0.49 o 691 0.93 Yes Yes
2018PM22 O C K 2018-09-13.42631 1.000E-05 00:03:11.600 1.500E-01 0.500 F -0.214 0.468 +03° 19' 15.40" 1.000E-01 0.500 F 0.317 -0.182 22.2 R 0.70 0.93 o 691 1.06 Yes Yes
2018LQ2 O C 2018-09-14.26691 1.000E-05 23:00:43.330 1.500E-01 0.500 F -0.050 -0.357 +03° 58' 09.30" 1.000E-01 0.500 F 0.262 0.647 19.6 V 0.70 1.58 o 691 1.49 Yes Yes
2018LQ2 O C 2018-09-14.28376 1.000E-05 23:00:45.690 1.500E-01 0.500 F -0.050 -0.110 +03° 56' 58.80" 1.000E-01 0.500 F 0.262 -0.062 18.4 V 0.70 0.38 o 691 0.25 Yes Yes
2018LQ2 O C 2018-09-14.30059 1.000E-05 23:00:47.970 1.500E-01 0.500 F -0.050 -0.916 +03° 55' 48.80" 1.000E-01 0.500 F 0.262 -0.201 18.8 V 0.70 0.78 o 691 1.88 Yes Yes
2018RZ5 O C K 2018-09-14.30674 1.000E-05 00:37:41.300 1.500E-01 0.500 F -0.393 -0.781 -21° 15' 25.50" 1.000E-01 0.500 F 0.107 -0.297 22.0 R 0.70 0.39 o 691 1.78 Yes Yes
2018RZ5 O C K 2018-09-14.31746 1.000E-05 00:37:41.160 1.500E-01 0.500 F -0.393 -0.272 -21° 15' 37.10" 1.000E-01 0.500 F 0.107 0.044 21.8 R 0.70 0.17 o 691 0.60 Yes Yes
2018RZ5 O C K 2018-09-14.32818 1.000E-05 00:37:40.960 1.500E-01 0.500 F -0.393 -0.159 -21° 15' 47.70" 1.000E-01 0.500 F 0.107 0.507 22.3 R 0.70 0.65 o 691 1.17 Yes Yes
2015RL82 O C 2018-09-14.34033 1.000E-05 00:35:33.100 1.500E-01 0.500 F -0.388 0.093 -20° 33' 48.00" 1.000E-01 0.500 F 0.032 -0.073 19.5 V 0.70 0.31 o 691 0.24 Yes Yes
2018RY6 O C K 2018-09-14.35449 1.000E-05 00:03:25.320 1.500E-01 0.500 F -0.173 -0.206 +00° 06' 22.50" 1.000E-01 0.500 F 0.290 0.668 21.4 R 0.70 0.05 o 691 1.47 Yes Yes
2015RL82 O C 2018-09-14.36544 1.000E-05 00:35:29.620 1.500E-01 0.500 F -0.388 0.049 -20° 33' 53.40" 1.000E-01 0.500 F 0.032 0.080 19.1 V 0.70 -0.09 o 691 0.19 Yes Yes
2018RY6 O C K 2018-09-14.37950 1.000E-05 00:03:21.960 1.500E-01 0.500 F -0.173 -0.463 +00° 05' 41.50" 1.000E-01 0.500 F 0.290 0.482 21.9 R 0.70 0.55 o 691 1.38 Yes Yes
2015RL82 O C 2018-09-14.39038 1.000E-05 00:35:26.100 1.500E-01 0.500 F -0.388 -0.924 -20° 33' 59.10" 1.000E-01 0.500 F 0.032 -0.229 19.6 V 0.70 0.41 o 691 1.92 Yes Yes
2018RY6 O C K 2018-09-14.40503 1.000E-05 00:03:18.590 1.500E-01 0.500 F -0.173 -0.046 +00° 04' 59.50" 1.000E-01 0.500 F 0.290 0.097 22.0 R 0.70 0.65 o 691 0.22 Yes Yes
2014SM143 O C K 2018-09-14.42001 1.000E-05 04:28:34.500 1.500E-01 0.500 F -0.425 -0.003 -05° 48' 28.40" 1.000E-01 0.500 F 0.017 -0.189 20.1 R 0.70 -0.26 o 691 0.38 Yes Yes
2018RZ6 O C K 2018-09-14.43298 1.000E-05 03:42:29.760 1.500E-01 0.500 F -0.306 -0.484 +06° 47' 49.20" 1.000E-01 0.500 F 0.411 0.431 20.8 R 0.70 0.33 o 691 1.34 Yes Yes
2014SM143 O C K 2018-09-14.44253 1.000E-05 04:28:39.500 1.500E-01 0.500 F -0.425 -0.069 -05° 47' 51.00" 1.000E-01 0.500 F 0.017 0.067 20.0 R 0.70 -0.36 o 691 0.19 Yes Yes
2018RZ6 O C K 2018-09-14.45604 1.000E-05 03:42:41.130 1.500E-01 0.500 F -0.306 -0.043 +06° 50' 33.60" 1.000E-01 0.500 F 0.411 -0.032 20.5 R 0.70 0.03 o 691 0.11 Yes Yes

[1-200] [201-400] [401-600] [601-800] [801-1000] [1001-1200] [1201-1400] [1401-1600] [1601-1800] [1801-2000] [2001-2200] [2201-2400] [2401-2600] [2601-2800] [2801-3000] [3001-3200] [3201-3400] [3401-3600] [3601-3800] [3801-4000] [4001-4200] [4201-4400] [4401-4600] [4601-4800] [4801-5000] [5001-5200] [5201-5400] [5401-5600] [5601-5800] [5801-6000] [6001-6200] [6201-6400] [6401-6600] [6601-6800] [6801-7000] [7001-7200] [7201-7400] [7401-7600] [7601-7800] [7801-8000] [8001-8200] [8201-8400] [8401-8600] [8601-8800] [8801-9000] [9001-9200] [9201-9400] [9401-9600] [9601-9800] [9801-10000] [10001-10200] [10201-10400] [10401-10600] [10601-10800] [10801-11000] [11001-11200] [11201-11400] [11401-11600] [11601-11800] [11801-12000] [12001-12200] [12201-12400] [12401-12600] [12601-12800] [12801-13000] [13001-13200] [13201-13400] [13401-13600] [13601-13800] [13801-14000] [14001-14200] [14201-14400] [14401-14600] [14601-14800] [14801-15000] [15001-15200] [15201-15400] [15401-15600] [15601-15800] [15801-16000] [16001-16200] [16201-16400] [16401-16600] [16601-16800] [16801-17000] [17001-17200] [17201-17400] [17401-17600] [17601-17800] [17801-18000] [18001-18200] [18201-18400] [18401-18600] [18601-18800] [18801-19000] [19001-19200] [19201-19400] [19401-19600] [19601-19800] [19801-20000] [20001-20200] [20201-20400] [20401-20600] [20601-20800] [20801-21000] [21001-21200] [21201-21400] [21401-21600] [21601-21800] [21801-22000] [22001-22200] [22201-22400] [22401-22600] [22601-22800] [22801-23000] [23001-23200] [23201-23400] [23401-23600] [23601-23800] [23801-24000] [24001-24200] [24201-24400] [24401-24600] [24601-24800] [24801-25000] [25001-25200] [25201-25400] [25401-25600] [25601-25800] [25801-26000] [26001-26200] [26201-26400] [26401-26600] [26601-26800] [26801-27000] [27001-27200] [27201-27400] [27401-27600] [27601-27800] [27801-28000] [28001-28200] [28201-28400] [28401-28600] [28601-28800] [28801-29000] [29001-29200] [29201-29400] [29401-29600] [29601-29800] [29801-30000] [30001-30200] [30201-30400] [30401-30600] [30601-30800] [30801-31000] [31001-31200] [31201-31400] [31401-31600] [31601-31800] [31801-32000] [32001-32200] [32201-32400] [32401-32600] [32601-32800] [32801-33000] [33001-33200] [33201-33400] [33401-33600] [33601-33800] [33801-34000] [34001-34200] [34201-34400] [34401-34600] [34601-34800] [34801-35000] [35001-35200] [35201-35400] [35401-35600] [35601-35800] [35801-36000] [36001-36200] [36201-36400] [36401-36600] [36601-36800] [36801-37000] [37001-37200] [37201-37400] [37401-37600] [37601-37800] [37801-38000] [38001-38200] [38201-38400] [38401-38600] [38601-38800] [38801-39000] [39001-39200] [39201-39400] [39401-39600] [39601-39800] [39801-40000] [40001-40200] [40201-40400] [40401-40600] [40601-40800] [40801-41000] [41001-41200] [41201-41400] [41401-41600] [41601-41800] [41801-42000] [42001-42200] [42201-42400] [42401-42600] [42601-42800] [42801-43000] [43001-43200] [43201-43400] [43401-43600] [43601-43800] [43801-44000] [44001-44200] [44201-44400] [44401-44600] [44601-44800] [44801-45000] [45001-45200] [45201-45400] [45401-45600] [45601-45800] [45801-46000] [46001-46200] [46201-46400] [46401-46600] [46601-46800] [46801-47000] [47001-47200] [47201-47400] [47401-47600] [47601-47800] [47801-48000] [48001-48200] [48201-48400] [48401-48600] [48601-48800] [48801-49000] [49001-49200] [49201-49400] [49401-49600] [49601-49800] [49801-50000] [50001-50200] [50201-50388]